Silver Fork, California
Current Conditions -  °F | °C
As of 12:53 PM on Thursday 20 Nov 2014 (Local Time) from KTVL Reporting Station
Scattered Clouds Scattered Clouds  
Wind Chill: 45°   Ceiling: Unl
Heat Index: 49°   Visibility: 10mi
Dew Point: 27°   Wind: 9mph
Humidity: 43%   Direction: 190°S
Pressure: 30.02"   Gusts: 16mph
Location:  38.7639°N, 120.248°W
Report Text: KTVL 202053Z AUTO 19008G14KT 10SM FEW042 SCT110 09/M03 A3002 RMK AO2 SLP139 T00941028 58021
Loading
Personal Weather Stations






























Interactive Weather Map New forecast layout! Learn more

10-Day Weather Forecast

Advertisements
Track Severe Weather on mobile